sensor_id;sensor_type;location;lat;lon;timestamp;P1;durP1;ratioP1;P2;durP2;ratioP2
21955;SDS011;11142;49.930;8.606;2023-09-18T00:00:53;5.25;;;3.42;;
21955;SDS011;11142;49.930;8.606;2023-09-18T00:03:23;5.22;;;3.08;;
21955;SDS011;11142;49.930;8.606;2023-09-18T00:05:52;4.40;;;3.13;;
21955;SDS011;11142;49.930;8.606;2023-09-18T00:08:24;7.25;;;3.55;;
21955;SDS011;11142;49.930;8.606;2023-09-18T00:10:53;6.60;;;3.35;;
21955;SDS011;11142;49.930;8.606;2023-09-18T00:13:23;7.60;;;3.38;;
21955;SDS011;11142;49.930;8.606;2023-09-18T00:15:53;8.07;;;3.00;;
21955;SDS011;11142;49.930;8.606;2023-09-18T00:18:26;5.75;;;3.63;;
21955;SDS011;11142;49.930;8.606;2023-09-18T00:20:55;6.28;;;3.28;;
21955;SDS011;11142;49.930;8.606;2023-09-18T00:23:25;7.07;;;3.65;;
21955;SDS011;11142;49.930;8.606;2023-09-18T00:25:53;4.45;;;3.03;;
21955;SDS011;11142;49.930;8.606;2023-09-18T00:28:21;7.28;;;3.67;;
21955;SDS011;11142;49.930;8.606;2023-09-18T00:30:49;6.85;;;3.58;;
21955;SDS011;11142;49.930;8.606;2023-09-18T00:33:18;4.90;;;3.08;;
21955;SDS011;11142;49.930;8.606;2023-09-18T00:35:47;6.40;;;3.38;;
21955;SDS011;11142;49.930;8.606;2023-09-18T00:38:16;6.15;;;3.40;;
21955;SDS011;11142;49.930;8.606;2023-09-18T00:40:46;9.05;;;3.50;;
21955;SDS011;11142;49.930;8.606;2023-09-18T00:43:16;8.20;;;3.45;;
21955;SDS011;11142;49.930;8.606;2023-09-18T00:45:45;5.88;;;3.70;;
21955;SDS011;11142;49.930;8.606;2023-09-18T00:48:16;5.88;;;3.60;;
21955;SDS011;11142;49.930;8.606;2023-09-18T00:50:45;6.50;;;3.35;;
21955;SDS011;11142;49.930;8.606;2023-09-18T00:53:16;5.45;;;3.60;;
21955;SDS011;11142;49.930;8.606;2023-09-18T00:58:18;5.63;;;3.33;;
21955;SDS011;11142;49.930;8.606;2023-09-18T01:00:46;7.60;;;3.00;;
21955;SDS011;11142;49.930;8.606;2023-09-18T01:03:18;4.30;;;2.97;;
21955;SDS011;11142;49.930;8.606;2023-09-18T01:05:47;6.18;;;3.45;;
21955;SDS011;11142;49.930;8.606;2023-09-18T01:08:16;4.53;;;3.10;;
21955;SDS011;11142;49.930;8.606;2023-09-18T01:10:47;7.20;;;3.38;;
21955;SDS011;11142;49.930;8.606;2023-09-18T01:13:23;12.00;;;3.40;;
21955;SDS011;11142;49.930;8.606;2023-09-18T01:16:02;5.93;;;3.20;;
21955;SDS011;11142;49.930;8.606;2023-09-18T01:18:36;7.28;;;3.47;;
21955;SDS011;11142;49.930;8.606;2023-09-18T01:21:04;4.10;;;3.10;;
21955;SDS011;11142;49.930;8.606;2023-09-18T01:23:34;4.65;;;3.53;;
21955;SDS011;11142;49.930;8.606;2023-09-18T01:26:02;6.05;;;3.45;;
21955;SDS011;11142;49.930;8.606;2023-09-18T01:28:31;6.88;;;3.65;;
21955;SDS011;11142;49.930;8.606;2023-09-18T01:30:59;4.38;;;3.00;;
21955;SDS011;11142;49.930;8.606;2023-09-18T01:33:28;4.90;;;3.22;;
21955;SDS011;11142;49.930;8.606;2023-09-18T01:35:57;5.60;;;2.97;;
21955;SDS011;11142;49.930;8.606;2023-09-18T01:38:27;6.57;;;3.65;;
21955;SDS011;11142;49.930;8.606;2023-09-18T01:40:58;3.13;;;2.80;;
21955;SDS011;11142;49.930;8.606;2023-09-18T01:43:29;4.75;;;3.00;;
21955;SDS011;11142;49.930;8.606;2023-09-18T01:45:59;5.97;;;3.10;;
21955;SDS011;11142;49.930;8.606;2023-09-18T01:48:27;5.95;;;3.00;;
21955;SDS011;11142;49.930;8.606;2023-09-18T01:50:58;5.03;;;3.42;;
21955;SDS011;11142;49.930;8.606;2023-09-18T01:53:26;5.65;;;3.38;;
21955;SDS011;11142;49.930;8.606;2023-09-18T01:55:55;4.25;;;2.80;;
21955;SDS011;11142;49.930;8.606;2023-09-18T01:58:24;5.55;;;3.17;;
21955;SDS011;11142;49.930;8.606;2023-09-18T02:00:53;7.63;;;2.95;;
21955;SDS011;11142;49.930;8.606;2023-09-18T02:03:22;6.38;;;3.20;;
21955;SDS011;11142;49.930;8.606;2023-09-18T02:06:10;6.35;;;3.65;;
21955;SDS011;11142;49.930;8.606;2023-09-18T02:08:41;10.70;;;3.70;;
21955;SDS011;11142;49.930;8.606;2023-09-18T02:11:13;7.25;;;4.03;;
21955;SDS011;11142;49.930;8.606;2023-09-18T02:13:43;6.00;;;3.60;;
21955;SDS011;11142;49.930;8.606;2023-09-18T02:16:11;5.22;;;3.83;;
21955;SDS011;11142;49.930;8.606;2023-09-18T02:18:40;6.38;;;4.28;;
21955;SDS011;11142;49.930;8.606;2023-09-18T02:21:10;9.25;;;4.30;;
21955;SDS011;11142;49.930;8.606;2023-09-18T02:23:40;7.55;;;4.70;;
21955;SDS011;11142;49.930;8.606;2023-09-18T02:26:08;7.10;;;4.38;;
21955;SDS011;11142;49.930;8.606;2023-09-18T02:28:37;8.15;;;4.60;;
21955;SDS011;11142;49.930;8.606;2023-09-18T02:31:07;11.07;;;4.60;;
21955;SDS011;11142;49.930;8.606;2023-09-18T02:33:36;9.93;;;5.05;;
21955;SDS011;11142;49.930;8.606;2023-09-18T02:36:04;9.32;;;4.55;;
21955;SDS011;11142;49.930;8.606;2023-09-18T02:38:33;8.50;;;4.88;;
21955;SDS011;11142;49.930;8.606;2023-09-18T02:41:01;6.97;;;3.83;;
21955;SDS011;11142;49.930;8.606;2023-09-18T02:43:30;8.20;;;4.30;;
21955;SDS011;11142;49.930;8.606;2023-09-18T02:45:58;7.70;;;4.50;;
21955;SDS011;11142;49.930;8.606;2023-09-18T02:48:29;7.43;;;4.10;;
21955;SDS011;11142;49.930;8.606;2023-09-18T02:50:57;8.93;;;4.40;;
21955;SDS011;11142;49.930;8.606;2023-09-18T02:53:29;9.55;;;4.18;;
21955;SDS011;11142;49.930;8.606;2023-09-18T02:55:59;7.93;;;3.92;;
21955;SDS011;11142;49.930;8.606;2023-09-18T02:58:27;9.70;;;4.55;;
21955;SDS011;11142;49.930;8.606;2023-09-18T03:00:56;5.88;;;3.90;;
21955;SDS011;11142;49.930;8.606;2023-09-18T03:03:29;12.82;;;4.38;;
21955;SDS011;11142;49.930;8.606;2023-09-18T03:06:01;10.30;;;4.20;;
21955;SDS011;11142;49.930;8.606;2023-09-18T03:08:30;9.05;;;4.57;;
21955;SDS011;11142;49.930;8.606;2023-09-18T03:10:59;9.57;;;4.20;;
21955;SDS011;11142;49.930;8.606;2023-09-18T03:13:28;7.78;;;3.90;;
21955;SDS011;11142;49.930;8.606;2023-09-18T03:16:00;14.48;;;4.68;;
21955;SDS011;11142;49.930;8.606;2023-09-18T03:18:31;12.30;;;4.40;;
21955;SDS011;11142;49.930;8.606;2023-09-18T03:21:00;8.98;;;4.80;;
21955;SDS011;11142;49.930;8.606;2023-09-18T03:23:28;7.90;;;3.92;;
21955;SDS011;11142;49.930;8.606;2023-09-18T03:25:57;9.63;;;4.28;;
21955;SDS011;11142;49.930;8.606;2023-09-18T03:28:27;11.70;;;4.70;;
21955;SDS011;11142;49.930;8.606;2023-09-18T03:30:57;7.90;;;4.40;;
21955;SDS011;11142;49.930;8.606;2023-09-18T03:33:26;8.43;;;4.70;;
21955;SDS011;11142;49.930;8.606;2023-09-18T03:35:55;11.88;;;4.18;;
21955;SDS011;11142;49.930;8.606;2023-09-18T03:38:28;8.52;;;4.28;;
21955;SDS011;11142;49.930;8.606;2023-09-18T03:40:59;8.88;;;4.40;;
21955;SDS011;11142;49.930;8.606;2023-09-18T03:43:28;12.68;;;4.35;;
21955;SDS011;11142;49.930;8.606;2023-09-18T03:46:02;7.38;;;4.18;;
21955;SDS011;11142;49.930;8.606;2023-09-18T03:48:34;11.00;;;4.22;;
21955;SDS011;11142;49.930;8.606;2023-09-18T03:51:06;6.47;;;3.72;;
21955;SDS011;11142;49.930;8.606;2023-09-18T03:53:35;8.07;;;3.92;;
21955;SDS011;11142;49.930;8.606;2023-09-18T03:56:03;10.70;;;4.28;;
21955;SDS011;11142;49.930;8.606;2023-09-18T03:58:31;8.30;;;4.40;;
21955;SDS011;11142;49.930;8.606;2023-09-18T04:01:02;10.80;;;4.05;;
21955;SDS011;11142;49.930;8.606;2023-09-18T04:03:31;8.48;;;4.43;;
21955;SDS011;11142;49.930;8.606;2023-09-18T04:05:59;8.77;;;4.32;;
21955;SDS011;11142;49.930;8.606;2023-09-18T04:08:31;10.85;;;4.57;;
21955;SDS011;11142;49.930;8.606;2023-09-18T04:11:00;13.88;;;4.65;;
21955;SDS011;11142;49.930;8.606;2023-09-18T04:13:31;12.40;;;4.93;;
21955;SDS011;11142;49.930;8.606;2023-09-18T04:16:01;8.68;;;4.05;;
21955;SDS011;11142;49.930;8.606;2023-09-18T04:18:31;6.47;;;4.30;;
21955;SDS011;11142;49.930;8.606;2023-09-18T04:21:02;9.02;;;4.20;;
21955;SDS011;11142;49.930;8.606;2023-09-18T04:23:32;6.20;;;4.32;;
21955;SDS011;11142;49.930;8.606;2023-09-18T04:26:04;7.60;;;4.30;;
21955;SDS011;11142;49.930;8.606;2023-09-18T04:28:36;12.23;;;5.13;;
21955;SDS011;11142;49.930;8.606;2023-09-18T04:31:04;10.70;;;4.85;;
21955;SDS011;11142;49.930;8.606;2023-09-18T04:33:33;7.93;;;4.35;;
21955;SDS011;11142;49.930;8.606;2023-09-18T04:36:02;12.48;;;4.50;;
21955;SDS011;11142;49.930;8.606;2023-09-18T04:38:30;8.25;;;4.32;;
21955;SDS011;11142;49.930;8.606;2023-09-18T04:41:01;9.55;;;4.40;;
21955;SDS011;11142;49.930;8.606;2023-09-18T04:43:29;8.68;;;4.60;;
21955;SDS011;11142;49.930;8.606;2023-09-18T04:45:59;7.97;;;4.20;;
21955;SDS011;11142;49.930;8.606;2023-09-18T04:48:30;12.68;;;4.38;;
21955;SDS011;11142;49.930;8.606;2023-09-18T04:50:59;10.70;;;4.53;;
21955;SDS011;11142;49.930;8.606;2023-09-18T04:53:28;7.65;;;4.18;;
21955;SDS011;11142;49.930;8.606;2023-09-18T04:55:56;12.02;;;3.97;;
21955;SDS011;11142;49.930;8.606;2023-09-18T04:58:27;6.03;;;3.47;;
21955;SDS011;11142;49.930;8.606;2023-09-18T05:00:56;9.73;;;3.63;;
21955;SDS011;11142;49.930;8.606;2023-09-18T05:03:26;7.60;;;3.45;;
21955;SDS011;11142;49.930;8.606;2023-09-18T05:05:57;6.32;;;3.17;;
21955;SDS011;11142;49.930;8.606;2023-09-18T05:08:25;9.57;;;3.42;;
21955;SDS011;11142;49.930;8.606;2023-09-18T05:10:54;6.90;;;3.72;;
21955;SDS011;11142;49.930;8.606;2023-09-18T05:13:24;6.45;;;3.22;;
21955;SDS011;11142;49.930;8.606;2023-09-18T05:15:53;11.77;;;3.90;;
21955;SDS011;11142;49.930;8.606;2023-09-18T05:18:22;9.40;;;3.63;;
21955;SDS011;11142;49.930;8.606;2023-09-18T05:20:51;5.03;;;2.90;;
21955;SDS011;11142;49.930;8.606;2023-09-18T05:23:20;10.27;;;3.60;;
21955;SDS011;11142;49.930;8.606;2023-09-18T05:25:48;5.63;;;2.72;;
21955;SDS011;11142;49.930;8.606;2023-09-18T05:28:17;12.18;;;3.83;;
21955;SDS011;11142;49.930;8.606;2023-09-18T05:30:46;8.73;;;2.97;;
21955;SDS011;11142;49.930;8.606;2023-09-18T05:33:15;8.25;;;3.28;;
21955;SDS011;11142;49.930;8.606;2023-09-18T05:35:44;6.45;;;2.85;;
21955;SDS011;11142;49.930;8.606;2023-09-18T05:38:13;10.20;;;3.88;;
21955;SDS011;11142;49.930;8.606;2023-09-18T05:40:43;15.13;;;3.45;;
21955;SDS011;11142;49.930;8.606;2023-09-18T05:43:13;11.45;;;3.40;;
21955;SDS011;11142;49.930;8.606;2023-09-18T05:45:41;7.00;;;2.95;;
21955;SDS011;11142;49.930;8.606;2023-09-18T05:48:13;5.03;;;2.90;;
21955;SDS011;11142;49.930;8.606;2023-09-18T05:50:43;10.52;;;3.10;;
21955;SDS011;11142;49.930;8.606;2023-09-18T05:53:11;8.82;;;3.33;;
21955;SDS011;11142;49.930;8.606;2023-09-18T05:55:40;8.43;;;3.38;;
21955;SDS011;11142;49.930;8.606;2023-09-18T05:58:09;10.27;;;3.28;;
21955;SDS011;11142;49.930;8.606;2023-09-18T06:00:39;8.65;;;2.95;;
21955;SDS011;11142;49.930;8.606;2023-09-18T06:03:08;9.27;;;3.53;;
21955;SDS011;11142;49.930;8.606;2023-09-18T06:05:43;7.60;;;3.20;;
21955;SDS011;11142;49.930;8.606;2023-09-18T06:08:13;12.35;;;4.10;;
21955;SDS011;11142;49.930;8.606;2023-09-18T06:10:44;12.27;;;3.67;;
21955;SDS011;11142;49.930;8.606;2023-09-18T06:13:12;7.25;;;3.13;;
21955;SDS011;11142;49.930;8.606;2023-09-18T06:15:40;7.75;;;2.75;;
21955;SDS011;11142;49.930;8.606;2023-09-18T06:18:08;7.82;;;2.78;;
21955;SDS011;11142;49.930;8.606;2023-09-18T06:20:37;8.77;;;2.72;;
21955;SDS011;11142;49.930;8.606;2023-09-18T06:23:07;11.27;;;3.00;;
21955;SDS011;11142;49.930;8.606;2023-09-18T06:25:35;11.45;;;2.75;;
21955;SDS011;11142;49.930;8.606;2023-09-18T06:28:07;8.47;;;2.63;;
21955;SDS011;11142;49.930;8.606;2023-09-18T06:30:36;11.35;;;2.65;;
21955;SDS011;11142;49.930;8.606;2023-09-18T06:33:04;7.65;;;2.63;;
21955;SDS011;11142;49.930;8.606;2023-09-18T06:35:33;9.60;;;2.95;;
21955;SDS011;11142;49.930;8.606;2023-09-18T06:38:01;9.02;;;3.20;;
21955;SDS011;11142;49.930;8.606;2023-09-18T06:40:33;6.35;;;3.13;;
21955;SDS011;11142;49.930;8.606;2023-09-18T06:43:02;5.93;;;3.30;;
21955;SDS011;11142;49.930;8.606;2023-09-18T06:45:31;9.75;;;3.42;;
21955;SDS011;11142;49.930;8.606;2023-09-18T06:48:00;7.45;;;3.13;;
21955;SDS011;11142;49.930;8.606;2023-09-18T06:50:29;7.47;;;2.42;;
21955;SDS011;11142;49.930;8.606;2023-09-18T06:52:57;9.82;;;2.75;;
21955;SDS011;11142;49.930;8.606;2023-09-18T06:55:25;9.02;;;2.75;;
21955;SDS011;11142;49.930;8.606;2023-09-18T06:57:55;6.38;;;2.92;;
21955;SDS011;11142;49.930;8.606;2023-09-18T07:00:25;6.97;;;2.53;;
21955;SDS011;11142;49.930;8.606;2023-09-18T07:02:54;8.15;;;2.67;;
21955;SDS011;11142;49.930;8.606;2023-09-18T07:05:24;11.88;;;2.95;;
21955;SDS011;11142;49.930;8.606;2023-09-18T07:07:53;6.10;;;3.03;;
21955;SDS011;11142;49.930;8.606;2023-09-18T07:10:21;9.32;;;2.38;;
21955;SDS011;11142;49.930;8.606;2023-09-18T07:12:51;8.40;;;2.92;;
21955;SDS011;11142;49.930;8.606;2023-09-18T07:15:24;5.55;;;2.70;;
21955;SDS011;11142;49.930;8.606;2023-09-18T07:17:53;7.53;;;2.75;;
21955;SDS011;11142;49.930;8.606;2023-09-18T07:20:21;11.52;;;3.75;;
21955;SDS011;11142;49.930;8.606;2023-09-18T07:22:51;11.27;;;2.83;;
21955;SDS011;11142;49.930;8.606;2023-09-18T07:25:19;11.00;;;2.92;;
21955;SDS011;11142;49.930;8.606;2023-09-18T07:27:47;7.95;;;2.83;;
21955;SDS011;11142;49.930;8.606;2023-09-18T07:30:15;8.07;;;2.60;;
21955;SDS011;11142;49.930;8.606;2023-09-18T07:32:51;10.35;;;2.88;;
21955;SDS011;11142;49.930;8.606;2023-09-18T07:35:19;7.57;;;2.72;;
21955;SDS011;11142;49.930;8.606;2023-09-18T07:37:49;13.10;;;2.75;;
21955;SDS011;11142;49.930;8.606;2023-09-18T07:40:18;5.93;;;2.53;;
21955;SDS011;11142;49.930;8.606;2023-09-18T07:42:49;6.30;;;2.50;;
21955;SDS011;11142;49.930;8.606;2023-09-18T07:45:17;5.00;;;2.65;;
21955;SDS011;11142;49.930;8.606;2023-09-18T07:47:46;8.30;;;3.20;;
21955;SDS011;11142;49.930;8.606;2023-09-18T07:50:16;6.25;;;2.20;;
21955;SDS011;11142;49.930;8.606;2023-09-18T07:52:46;7.53;;;2.33;;
21955;SDS011;11142;49.930;8.606;2023-09-18T07:55:15;7.72;;;2.15;;
21955;SDS011;11142;49.930;8.606;2023-09-18T07:57:43;6.25;;;2.35;;
21955;SDS011;11142;49.930;8.606;2023-09-18T08:00:12;10.88;;;2.83;;
21955;SDS011;11142;49.930;8.606;2023-09-18T08:02:42;8.02;;;2.65;;
21955;SDS011;11142;49.930;8.606;2023-09-18T08:05:11;3.53;;;2.13;;
21955;SDS011;11142;49.930;8.606;2023-09-18T08:07:42;8.70;;;2.40;;
21955;SDS011;11142;49.930;8.606;2023-09-18T08:10:11;6.45;;;2.00;;
21955;SDS011;11142;49.930;8.606;2023-09-18T08:12:40;4.60;;;2.10;;
21955;SDS011;11142;49.930;8.606;2023-09-18T08:15:09;5.57;;;2.00;;
21955;SDS011;11142;49.930;8.606;2023-09-18T08:17:37;6.95;;;2.20;;
21955;SDS011;11142;49.930;8.606;2023-09-18T08:20:08;5.20;;;2.05;;
21955;SDS011;11142;49.930;8.606;2023-09-18T08:22:40;7.78;;;2.15;;
21955;SDS011;11142;49.930;8.606;2023-09-18T08:25:11;4.70;;;1.77;;
21955;SDS011;11142;49.930;8.606;2023-09-18T08:27:40;6.00;;;1.90;;
21955;SDS011;11142;49.930;8.606;2023-09-18T08:30:11;6.15;;;1.70;;
21955;SDS011;11142;49.930;8.606;2023-09-18T08:32:41;8.88;;;3.33;;
21955;SDS011;11142;49.930;8.606;2023-09-18T08:35:10;5.65;;;2.00;;
21955;SDS011;11142;49.930;8.606;2023-09-18T08:37:39;5.50;;;1.73;;
21955;SDS011;11142;49.930;8.606;2023-09-18T08:40:11;4.53;;;1.55;;
21955;SDS011;11142;49.930;8.606;2023-09-18T08:42:44;7.88;;;2.40;;
21955;SDS011;11142;49.930;8.606;2023-09-18T08:45:15;5.97;;;1.40;;
21955;SDS011;11142;49.930;8.606;2023-09-18T08:47:51;4.05;;;1.50;;
21955;SDS011;11142;49.930;8.606;2023-09-18T08:50:22;5.90;;;1.77;;
21955;SDS011;11142;49.930;8.606;2023-09-18T08:52:52;5.15;;;1.88;;
21955;SDS011;11142;49.930;8.606;2023-09-18T08:55:22;4.53;;;1.52;;
21955;SDS011;11142;49.930;8.606;2023-09-18T08:57:51;3.30;;;1.88;;
21955;SDS011;11142;49.930;8.606;2023-09-18T09:00:20;4.53;;;1.63;;
21955;SDS011;11142;49.930;8.606;2023-09-18T09:02:49;2.75;;;1.35;;
21955;SDS011;11142;49.930;8.606;2023-09-18T09:05:19;4.88;;;1.30;;
21955;SDS011;11142;49.930;8.606;2023-09-18T09:07:48;3.67;;;1.35;;
21955;SDS011;11142;49.930;8.606;2023-09-18T09:10:18;3.63;;;1.48;;
21955;SDS011;11142;49.930;8.606;2023-09-18T09:12:52;2.78;;;1.35;;
21955;SDS011;11142;49.930;8.606;2023-09-18T09:15:23;3.60;;;1.17;;
21955;SDS011;11142;49.930;8.606;2023-09-18T09:18:01;2.88;;;1.50;;
21955;SDS011;11142;49.930;8.606;2023-09-18T09:20:32;3.03;;;1.33;;
21955;SDS011;11142;49.930;8.606;2023-09-18T09:23:02;3.42;;;1.20;;
21955;SDS011;11142;49.930;8.606;2023-09-18T09:25:33;6.95;;;1.02;;
21955;SDS011;11142;49.930;8.606;2023-09-18T09:28:03;6.45;;;1.40;;
21955;SDS011;11142;49.930;8.606;2023-09-18T09:30:33;2.45;;;1.30;;
21955;SDS011;11142;49.930;8.606;2023-09-18T09:33:03;4.20;;;1.38;;
21955;SDS011;11142;49.930;8.606;2023-09-18T09:35:34;2.75;;;1.45;;
21955;SDS011;11142;49.930;8.606;2023-09-18T09:38:07;6.18;;;1.35;;
21955;SDS011;11142;49.930;8.606;2023-09-18T09:40:38;1.98;;;1.10;;
21955;SDS011;11142;49.930;8.606;2023-09-18T09:43:09;5.07;;;1.60;;
21955;SDS011;11142;49.930;8.606;2023-09-18T09:45:40;3.35;;;1.40;;
21955;SDS011;11142;49.930;8.606;2023-09-18T09:48:09;2.45;;;1.20;;
21955;SDS011;11142;49.930;8.606;2023-09-18T09:50:43;2.20;;;1.10;;
21955;SDS011;11142;49.930;8.606;2023-09-18T09:53:15;5.85;;;1.20;;
21955;SDS011;11142;49.930;8.606;2023-09-18T09:55:52;4.70;;;1.65;;
21955;SDS011;11142;49.930;8.606;2023-09-18T09:58:27;5.45;;;1.10;;
21955;SDS011;11142;49.930;8.606;2023-09-18T10:01:00;2.75;;;1.38;;
21955;SDS011;11142;49.930;8.606;2023-09-18T10:03:35;5.72;;;1.65;;
21955;SDS011;11142;49.930;8.606;2023-09-18T10:06:06;1.38;;;1.27;;
21955;SDS011;11142;49.930;8.606;2023-09-18T10:08:37;2.33;;;1.10;;
21955;SDS011;11142;49.930;8.606;2023-09-18T10:11:07;5.32;;;1.10;;
21955;SDS011;11142;49.930;8.606;2023-09-18T10:13:41;2.78;;;1.55;;
21955;SDS011;11142;49.930;8.606;2023-09-18T10:16:16;5.50;;;1.45;;
21955;SDS011;11142;49.930;8.606;2023-09-18T10:18:51;1.65;;;1.33;;
21955;SDS011;11142;49.930;8.606;2023-09-18T10:21:30;1.70;;;1.15;;
21955;SDS011;11142;49.930;8.606;2023-09-18T10:24:05;1.52;;;0.95;;
21955;SDS011;11142;49.930;8.606;2023-09-18T10:26:44;3.92;;;1.50;;
21955;SDS011;11142;49.930;8.606;2023-09-18T10:29:19;5.10;;;1.35;;
21955;SDS011;11142;49.930;8.606;2023-09-18T10:31:50;8.13;;;4.50;;
21955;SDS011;11142;49.930;8.606;2023-09-18T10:34:19;5.53;;;1.00;;
21955;SDS011;11142;49.930;8.606;2023-09-18T10:36:50;2.03;;;0.93;;
21955;SDS011;11142;49.930;8.606;2023-09-18T10:39:19;2.85;;;1.20;;
21955;SDS011;11142;49.930;8.606;2023-09-18T10:41:51;3.58;;;1.38;;
21955;SDS011;11142;49.930;8.606;2023-09-18T10:44:21;3.08;;;1.35;;
21955;SDS011;11142;49.930;8.606;2023-09-18T10:46:51;4.30;;;1.30;;
21955;SDS011;11142;49.930;8.606;2023-09-18T10:49:21;2.97;;;1.10;;
21955;SDS011;11142;49.930;8.606;2023-09-18T10:51:50;3.35;;;1.17;;
21955;SDS011;11142;49.930;8.606;2023-09-18T10:54:23;3.67;;;1.50;;
21955;SDS011;11142;49.930;8.606;2023-09-18T10:56:52;4.18;;;2.10;;
21955;SDS011;11142;49.930;8.606;2023-09-18T10:59:25;4.43;;;1.02;;
21955;SDS011;11142;49.930;8.606;2023-09-18T11:01:55;4.13;;;1.23;;
21955;SDS011;11142;49.930;8.606;2023-09-18T11:04:23;3.30;;;1.50;;
21955;SDS011;11142;49.930;8.606;2023-09-18T11:07:01;3.70;;;1.27;;
21955;SDS011;11142;49.930;8.606;2023-09-18T11:09:32;2.67;;;1.33;;
21955;SDS011;11142;49.930;8.606;2023-09-18T11:12:08;4.57;;;1.10;;
21955;SDS011;11142;49.930;8.606;2023-09-18T11:14:46;6.13;;;1.52;;
21955;SDS011;11142;49.930;8.606;2023-09-18T11:17:33;2.72;;;1.25;;
21955;SDS011;11142;49.930;8.606;2023-09-18T11:20:04;4.68;;;1.42;;
21955;SDS011;11142;49.930;8.606;2023-09-18T11:22:36;3.00;;;1.35;;
21955;SDS011;11142;49.930;8.606;2023-09-18T11:28:05;3.95;;;1.20;;
21955;SDS011;11142;49.930;8.606;2023-09-18T11:30:37;2.88;;;0.85;;
21955;SDS011;11142;49.930;8.606;2023-09-18T11:33:07;4.18;;;1.60;;
21955;SDS011;11142;49.930;8.606;2023-09-18T11:35:36;6.00;;;1.20;;
21955;SDS011;11142;49.930;8.606;2023-09-18T11:38:06;6.10;;;1.60;;
21955;SDS011;11142;49.930;8.606;2023-09-18T11:40:37;2.05;;;0.85;;
21955;SDS011;11142;49.930;8.606;2023-09-18T11:43:21;2.45;;;1.38;;
21955;SDS011;11142;49.930;8.606;2023-09-18T11:45:54;4.60;;;1.25;;
21955;SDS011;11142;49.930;8.606;2023-09-18T11:48:24;6.18;;;1.58;;
21955;SDS011;11142;49.930;8.606;2023-09-18T11:50:57;1.40;;;0.90;;
21955;SDS011;11142;49.930;8.606;2023-09-18T11:53:26;2.40;;;0.90;;
21955;SDS011;11142;49.930;8.606;2023-09-18T11:55:56;4.53;;;1.38;;
21955;SDS011;11142;49.930;8.606;2023-09-18T11:58:25;3.65;;;1.50;;
21955;SDS011;11142;49.930;8.606;2023-09-18T12:00:54;3.33;;;1.30;;
21955;SDS011;11142;49.930;8.606;2023-09-18T12:03:23;4.55;;;1.02;;
21955;SDS011;11142;49.930;8.606;2023-09-18T12:05:57;4.20;;;1.15;;
21955;SDS011;11142;49.930;8.606;2023-09-18T12:08:29;2.70;;;1.13;;
21955;SDS011;11142;49.930;8.606;2023-09-18T12:10:58;2.35;;;0.98;;
21955;SDS011;11142;49.930;8.606;2023-09-18T12:13:27;6.63;;;1.10;;
21955;SDS011;11142;49.930;8.606;2023-09-18T12:16:01;2.35;;;1.17;;
21955;SDS011;11142;49.930;8.606;2023-09-18T12:18:32;2.30;;;1.00;;
21955;SDS011;11142;49.930;8.606;2023-09-18T12:21:05;4.82;;;0.90;;
21955;SDS011;11142;49.930;8.606;2023-09-18T12:23:37;3.40;;;1.30;;
21955;SDS011;11142;49.930;8.606;2023-09-18T12:26:07;2.58;;;1.40;;
21955;SDS011;11142;49.930;8.606;2023-09-18T12:28:35;2.63;;;1.00;;
21955;SDS011;11142;49.930;8.606;2023-09-18T12:31:05;3.00;;;1.20;;
21955;SDS011;11142;49.930;8.606;2023-09-18T12:33:37;2.20;;;1.10;;
21955;SDS011;11142;49.930;8.606;2023-09-18T12:36:07;3.92;;;1.20;;
21955;SDS011;11142;49.930;8.606;2023-09-18T12:38:36;4.47;;;0.98;;
21955;SDS011;11142;49.930;8.606;2023-09-18T12:41:06;5.85;;;0.90;;
21955;SDS011;11142;49.930;8.606;2023-09-18T12:43:35;3.20;;;1.15;;
21955;SDS011;11142;49.930;8.606;2023-09-18T12:46:08;3.53;;;1.20;;
21955;SDS011;11142;49.930;8.606;2023-09-18T12:48:37;2.33;;;1.10;;
21955;SDS011;11142;49.930;8.606;2023-09-18T12:51:12;2.70;;;0.95;;
21955;SDS011;11142;49.930;8.606;2023-09-18T12:53:41;1.10;;;0.82;;
21955;SDS011;11142;49.930;8.606;2023-09-18T12:56:12;2.78;;;1.25;;
21955;SDS011;11142;49.930;8.606;2023-09-18T12:58:41;2.92;;;1.08;;
21955;SDS011;11142;49.930;8.606;2023-09-18T13:01:31;2.47;;;0.90;;
21955;SDS011;11142;49.930;8.606;2023-09-18T13:04:00;1.15;;;0.70;;
21955;SDS011;11142;49.930;8.606;2023-09-18T13:06:33;2.30;;;1.00;;
21955;SDS011;11142;49.930;8.606;2023-09-18T13:11:51;1.75;;;0.95;;
21955;SDS011;11142;49.930;8.606;2023-09-18T13:14:20;3.92;;;0.90;;
21955;SDS011;11142;49.930;8.606;2023-09-18T13:16:50;5.80;;;1.13;;
21955;SDS011;11142;49.930;8.606;2023-09-18T13:19:18;2.22;;;1.02;;
21955;SDS011;11142;49.930;8.606;2023-09-18T13:21:47;4.82;;;1.20;;
21955;SDS011;11142;49.930;8.606;2023-09-18T13:24:27;5.85;;;1.30;;
21955;SDS011;11142;49.930;8.606;2023-09-18T13:26:59;3.28;;;1.00;;
21955;SDS011;11142;49.930;8.606;2023-09-18T13:29:28;2.10;;;1.00;;
21955;SDS011;11142;49.930;8.606;2023-09-18T13:31:57;3.63;;;1.33;;
21955;SDS011;11142;49.930;8.606;2023-09-18T13:34:27;4.03;;;1.02;;
21955;SDS011;11142;49.930;8.606;2023-09-18T13:36:57;3.92;;;1.00;;
21955;SDS011;11142;49.930;8.606;2023-09-18T13:39:25;6.90;;;1.30;;
21955;SDS011;11142;49.930;8.606;2023-09-18T13:41:55;4.38;;;1.20;;
21955;SDS011;11142;49.930;8.606;2023-09-18T13:44:24;6.82;;;1.23;;
21955;SDS011;11142;49.930;8.606;2023-09-18T13:46:53;3.08;;;0.95;;
21955;SDS011;11142;49.930;8.606;2023-09-18T13:49:24;2.95;;;1.10;;
21955;SDS011;11142;49.930;8.606;2023-09-18T13:51:54;2.70;;;0.98;;
21955;SDS011;11142;49.930;8.606;2023-09-18T13:54:23;2.65;;;1.30;;
21955;SDS011;11142;49.930;8.606;2023-09-18T13:56:51;3.67;;;1.40;;
21955;SDS011;11142;49.930;8.606;2023-09-18T13:59:24;6.25;;;1.45;;
21955;SDS011;11142;49.930;8.606;2023-09-18T14:01:52;2.80;;;1.20;;
21955;SDS011;11142;49.930;8.606;2023-09-18T14:04:21;4.70;;;1.20;;
21955;SDS011;11142;49.930;8.606;2023-09-18T14:06:52;3.67;;;1.48;;
21955;SDS011;11142;49.930;8.606;2023-09-18T14:09:20;2.90;;;1.20;;
21955;SDS011;11142;49.930;8.606;2023-09-18T14:11:51;4.70;;;1.77;;
21955;SDS011;11142;49.930;8.606;2023-09-18T14:14:22;1.63;;;0.80;;
21955;SDS011;11142;49.930;8.606;2023-09-18T14:16:51;2.75;;;1.10;;
21955;SDS011;11142;49.930;8.606;2023-09-18T14:19:23;4.93;;;1.17;;
21955;SDS011;11142;49.930;8.606;2023-09-18T14:21:54;5.28;;;1.13;;
21955;SDS011;11142;49.930;8.606;2023-09-18T14:24:22;2.47;;;1.08;;
21955;SDS011;11142;49.930;8.606;2023-09-18T14:26:52;6.88;;;1.10;;
21955;SDS011;11142;49.930;8.606;2023-09-18T14:29:22;1.85;;;1.20;;
21955;SDS011;11142;49.930;8.606;2023-09-18T14:31:50;4.32;;;1.65;;
21955;SDS011;11142;49.930;8.606;2023-09-18T14:34:19;2.70;;;0.95;;
21955;SDS011;11142;49.930;8.606;2023-09-18T14:36:47;3.70;;;0.85;;
21955;SDS011;11142;49.930;8.606;2023-09-18T14:39:18;6.32;;;1.10;;
21955;SDS011;11142;49.930;8.606;2023-09-18T14:41:47;2.90;;;1.27;;
21955;SDS011;11142;49.930;8.606;2023-09-18T14:44:16;1.70;;;0.95;;
21955;SDS011;11142;49.930;8.606;2023-09-18T14:46:46;2.92;;;0.85;;
21955;SDS011;11142;49.930;8.606;2023-09-18T14:49:16;1.83;;;0.75;;
21955;SDS011;11142;49.930;8.606;2023-09-18T14:51:45;3.80;;;1.15;;
21955;SDS011;11142;49.930;8.606;2023-09-18T14:54:13;3.13;;;1.00;;
21955;SDS011;11142;49.930;8.606;2023-09-18T14:56:43;2.45;;;1.05;;
21955;SDS011;11142;49.930;8.606;2023-09-18T14:59:15;3.22;;;1.10;;
21955;SDS011;11142;49.930;8.606;2023-09-18T15:02:01;4.40;;;1.20;;
21955;SDS011;11142;49.930;8.606;2023-09-18T15:04:30;2.50;;;1.30;;
21955;SDS011;11142;49.930;8.606;2023-09-18T15:07:00;4.57;;;1.20;;
21955;SDS011;11142;49.930;8.606;2023-09-18T15:09:28;3.47;;;1.17;;
21955;SDS011;11142;49.930;8.606;2023-09-18T15:11:57;2.28;;;1.00;;